createdAt,value
2019-03-16T00:00:34.829Z,0.90
2019-03-16T00:03:05.203Z,0.80
2019-03-16T00:05:35.561Z,0.90
2019-03-16T00:08:25.453Z,0.90
2019-03-16T00:10:54.996Z,0.90
2019-03-16T00:13:25.186Z,0.90
2019-03-16T00:15:56.651Z,1.03
2019-03-16T00:18:27.669Z,1.20
2019-03-16T00:20:57.513Z,1.00
2019-03-16T00:23:28.176Z,0.90
2019-03-16T00:26:07.885Z,0.90
2019-03-16T00:28:37.804Z,0.80
2019-03-16T00:31:08.936Z,1.00
2019-03-16T00:33:42.110Z,0.90
2019-03-16T00:36:14.834Z,1.00
2019-03-16T00:38:44.455Z,1.13
2019-03-16T00:41:14.410Z,1.00
2019-03-16T00:43:49.565Z,1.00
2019-03-16T00:46:19.589Z,0.97
2019-03-16T00:48:52.590Z,1.10
2019-03-16T00:51:24.938Z,0.90
2019-03-16T00:53:55.010Z,1.00
2019-03-16T00:56:24.519Z,0.90
2019-03-16T00:58:54.195Z,1.00
2019-03-16T01:01:27.625Z,1.00
2019-03-16T01:03:57.979Z,1.03
2019-03-16T01:06:31.377Z,1.00
2019-03-16T01:09:02.062Z,1.00
2019-03-16T01:11:32.596Z,1.00
2019-03-16T01:14:02.519Z,0.90
2019-03-16T01:16:32.486Z,0.80
2019-03-16T01:19:02.294Z,1.00
2019-03-16T01:21:32.438Z,1.00
2019-03-16T01:24:05.999Z,0.90
2019-03-16T01:26:36.620Z,0.80
2019-03-16T01:29:07.143Z,0.87
2019-03-16T01:31:39.084Z,0.90
2019-03-16T01:34:09.828Z,0.90
2019-03-16T01:36:39.911Z,0.90
2019-03-16T01:39:09.833Z,1.00
2019-03-16T01:41:39.937Z,0.90
2019-03-16T01:44:10.284Z,1.00
2019-03-16T01:46:41.017Z,0.80
2019-03-16T01:49:11.546Z,1.00
2019-03-16T01:51:44.609Z,0.93
2019-03-16T01:54:19.491Z,0.90
2019-03-16T01:57:05.701Z,0.90
2019-03-16T01:59:35.608Z,1.47
2019-03-16T02:02:08.687Z,1.00
2019-03-16T02:04:38.919Z,0.83
2019-03-16T02:07:08.710Z,0.80
2019-03-16T02:09:38.773Z,0.90
2019-03-16T02:12:08.749Z,1.10
2019-03-16T02:14:39.226Z,1.00
2019-03-16T02:17:13.258Z,1.00
2019-03-16T02:19:46.556Z,1.00
2019-03-16T02:22:16.122Z,0.80
2019-03-16T02:24:46.135Z,0.90
2019-03-16T02:27:17.225Z,0.90
2019-03-16T02:29:47.266Z,0.90
2019-03-16T02:32:20.410Z,0.80
2019-03-16T02:34:50.362Z,0.90
2019-03-16T02:37:23.693Z,0.90
2019-03-16T02:39:53.817Z,0.90
2019-03-16T02:42:26.980Z,0.90
2019-03-16T02:44:58.900Z,0.80
2019-03-16T02:47:28.966Z,0.80
2019-03-16T02:49:58.754Z,0.90
2019-03-16T02:52:28.509Z,0.80
2019-03-16T02:54:58.341Z,0.87
2019-03-16T02:57:28.095Z,0.90
2019-03-16T03:00:00.242Z,0.83
2019-03-16T03:02:30.561Z,0.90
2019-03-16T03:05:05.774Z,0.70
2019-03-16T03:07:35.588Z,0.80
2019-03-16T03:10:06.864Z,0.90
2019-03-16T03:12:36.891Z,0.70
2019-03-16T03:15:08.094Z,0.90
2019-03-16T03:17:38.279Z,0.80
2019-03-16T03:20:08.302Z,1.00
2019-03-16T03:22:38.387Z,1.00
2019-03-16T03:25:08.512Z,1.00
2019-03-16T03:27:38.409Z,0.83
2019-03-16T03:30:08.741Z,0.80
2019-03-16T03:32:38.955Z,0.97
2019-03-16T03:35:08.882Z,0.90
2019-03-16T03:37:38.661Z,1.00
2019-03-16T03:40:08.650Z,1.10
2019-03-16T03:42:38.673Z,1.00
2019-03-16T03:45:08.675Z,0.97
2019-03-16T03:47:38.794Z,0.97
2019-03-16T03:50:11.803Z,0.90
2019-03-16T03:52:41.743Z,1.00
2019-03-16T03:55:12.025Z,0.90
2019-03-16T03:57:42.278Z,0.90
2019-03-16T04:00:12.398Z,0.93
2019-03-16T04:02:42.176Z,1.00
2019-03-16T04:05:11.739Z,1.00
2019-03-16T04:07:51.081Z,0.90
2019-03-16T04:10:21.097Z,1.03
2019-03-16T04:12:51.049Z,1.00
2019-03-16T04:15:20.893Z,1.10
2019-03-16T04:17:52.718Z,1.00
2019-03-16T04:20:23.013Z,1.00
2019-03-16T04:22:53.185Z,1.07
2019-03-16T04:25:25.774Z,1.20
2019-03-16T04:27:55.733Z,1.10
2019-03-16T04:30:25.663Z,1.10
2019-03-16T04:32:56.205Z,1.13
2019-03-16T04:35:29.280Z,1.03
2019-03-16T04:37:59.682Z,1.10
2019-03-16T04:40:29.724Z,1.10
2019-03-16T04:42:59.599Z,1.10
2019-03-16T04:45:29.169Z,1.00
2019-03-16T04:47:58.735Z,1.10
2019-03-16T04:50:29.425Z,1.30
2019-03-16T04:52:59.469Z,1.20
2019-03-16T04:55:30.779Z,1.00
2019-03-16T04:58:00.455Z,1.20
2019-03-16T05:00:30.540Z,1.20
2019-03-16T05:03:00.577Z,1.20
2019-03-16T05:05:30.557Z,1.20
2019-03-16T05:08:00.885Z,1.30
2019-03-16T05:10:31.607Z,1.30
2019-03-16T05:13:01.765Z,1.30
2019-03-16T05:15:32.236Z,1.30
2019-03-16T05:18:02.671Z,1.17
2019-03-16T05:20:36.996Z,1.17
2019-03-16T05:23:07.212Z,1.40
2019-03-16T05:25:39.347Z,1.57
2019-03-16T05:28:10.108Z,1.30
2019-03-16T05:30:40.803Z,1.30
2019-03-16T05:33:12.822Z,1.20
2019-03-16T05:35:43.137Z,1.43
2019-03-16T05:38:13.049Z,1.20
2019-03-16T05:40:42.917Z,1.63
2019-03-16T05:43:12.567Z,1.50
2019-03-16T05:45:43.884Z,1.30
2019-03-16T05:48:14.472Z,1.47
2019-03-16T05:50:46.991Z,1.60
2019-03-16T05:53:17.753Z,1.47
2019-03-16T05:55:48.372Z,1.40
2019-03-16T05:58:18.387Z,1.50
2019-03-16T06:00:53.265Z,1.50
2019-03-16T06:03:33.400Z,1.67
2019-03-16T06:06:03.313Z,1.60
2019-03-16T06:08:33.782Z,2.00
2019-03-16T06:11:10.192Z,2.10
2019-03-16T06:13:43.295Z,2.20
2019-03-16T06:16:14.747Z,2.10
2019-03-16T06:18:51.047Z,1.83
2019-03-16T06:22:02.120Z,1.93
2019-03-16T06:24:32.798Z,1.80
2019-03-16T06:27:49.176Z,2.07
2019-03-16T06:30:24.993Z,1.73
2019-03-16T06:32:55.223Z,2.10
2019-03-16T06:35:29.544Z,1.80
2019-03-16T06:37:59.627Z,2.00
2019-03-16T06:40:29.338Z,2.30
2019-03-16T06:42:58.821Z,2.10
2019-03-16T06:45:29.141Z,2.13
2019-03-16T06:47:59.115Z,1.93
2019-03-16T06:50:30.677Z,1.73
2019-03-16T06:53:00.337Z,2.13
2019-03-16T06:55:32.605Z,2.40
2019-03-16T06:58:19.266Z,1.90
2019-03-16T07:00:48.981Z,2.23
2019-03-16T07:03:19.422Z,2.20
2019-03-16T07:05:49.533Z,1.80
2019-03-16T07:08:19.046Z,2.20
2019-03-16T07:10:49.289Z,2.27
2019-03-16T07:13:19.256Z,2.67
2019-03-16T07:15:49.236Z,2.00
2019-03-16T07:18:31.325Z,2.37
2019-03-16T07:21:03.721Z,2.23
2019-03-16T07:23:33.990Z,2.53
2019-03-16T07:26:14.748Z,2.57
2019-03-16T07:28:37.419Z,2.47
2019-03-16T07:31:07.079Z,2.73
2019-03-16T07:33:36.534Z,2.40
2019-03-16T07:36:07.117Z,2.20
2019-03-16T07:38:37.421Z,2.37
2019-03-16T07:41:07.584Z,2.10
2019-03-16T07:43:38.264Z,2.40
2019-03-16T07:46:08.810Z,2.43
2019-03-16T07:48:46.738Z,2.30
2019-03-16T07:51:18.231Z,2.30
2019-03-16T07:53:50.486Z,2.43
2019-03-16T07:56:22.078Z,1.90
2019-03-16T07:58:55.938Z,2.27
2019-03-16T08:01:44.989Z,2.63
2019-03-16T08:04:17.252Z,2.67
2019-03-16T08:10:29.329Z,1.90
2019-03-16T08:12:59.933Z,2.10
2019-03-16T08:15:40.749Z,2.33
2019-03-16T08:18:12.650Z,2.30
2019-03-16T08:20:50.729Z,2.20
2019-03-16T08:23:25.153Z,2.10
2019-03-16T08:25:56.971Z,2.00
2019-03-16T08:28:30.231Z,1.90
2019-03-16T08:31:01.517Z,1.90
2019-03-16T08:33:32.271Z,2.30
2019-03-16T08:36:07.221Z,2.20
2019-03-16T08:38:42.805Z,2.30
2019-03-16T08:41:15.983Z,2.73
2019-03-16T08:44:15.975Z,1.93
2019-03-16T08:46:50.123Z,2.60
2019-03-16T08:49:26.734Z,2.00
2019-03-16T08:52:11.224Z,1.80
2019-03-16T08:54:48.207Z,2.20
2019-03-16T08:57:45.442Z,1.77
2019-03-16T09:00:17.421Z,2.00
2019-03-16T09:02:48.338Z,2.30
2019-03-16T09:05:26.703Z,2.63
2019-03-16T09:08:36.853Z,2.00
2019-03-16T09:15:14.551Z,2.27
2019-03-16T09:18:14.369Z,2.13
2019-03-16T09:27:39.796Z,2.10
2019-03-16T09:30:16.978Z,2.10
2019-03-16T09:33:07.724Z,2.30
2019-03-16T09:36:30.027Z,2.20
2019-03-16T09:40:14.647Z,2.40
2019-03-16T09:43:09.837Z,2.43
2019-03-16T09:50:07.585Z,2.60
2019-03-16T09:50:46.919Z,2.00
2019-03-16T09:53:38.808Z,1.67
2019-03-16T09:56:34.669Z,1.90
2019-03-16T09:59:30.148Z,2.27
2019-03-16T10:06:08.520Z,2.10
2019-03-16T10:08:42.253Z,2.20
2019-03-16T10:14:39.685Z,2.27
2019-03-16T10:17:18.956Z,2.30
2019-03-16T10:20:03.866Z,2.00
2019-03-16T10:22:55.631Z,1.60
2019-03-16T10:29:18.656Z,2.27
2019-03-16T10:31:56.316Z,2.40
2019-03-16T10:34:26.636Z,2.23
2019-03-16T10:36:56.400Z,3.30
2019-03-16T10:39:26.811Z,1.80
2019-03-16T10:41:57.619Z,1.90
2019-03-16T10:44:27.671Z,2.10
2019-03-16T10:46:57.851Z,1.97
2019-03-16T10:49:27.942Z,2.30
2019-03-16T10:52:00.384Z,1.60
2019-03-16T10:54:30.422Z,1.90
2019-03-16T10:57:00.782Z,1.90
2019-03-16T10:59:42.922Z,1.87
2019-03-16T11:02:17.212Z,1.70
2019-03-16T11:04:50.422Z,1.53
2019-03-16T11:07:49.712Z,1.80
2019-03-16T11:10:21.145Z,2.57
2019-03-16T11:12:56.492Z,1.50
2019-03-16T11:15:32.546Z,1.90
2019-03-16T11:18:02.599Z,1.57
2019-03-16T11:20:33.121Z,1.53
2019-03-16T11:23:10.244Z,1.80
2019-03-16T11:25:55.816Z,1.40
2019-03-16T11:28:50.645Z,1.70
2019-03-16T11:31:20.323Z,1.47
2019-03-16T11:33:55.582Z,1.50
2019-03-16T11:36:42.036Z,1.37
2019-03-16T11:39:14.389Z,1.97
2019-03-16T11:41:44.488Z,1.53
2019-03-16T11:44:15.299Z,1.37
2019-03-16T11:46:58.330Z,1.30
2019-03-16T11:57:21.440Z,1.47
2019-03-16T12:00:47.156Z,1.40
2019-03-16T12:06:27.752Z,1.50
2019-03-16T12:09:35.936Z,1.60
2019-03-16T12:16:03.563Z,1.20
2019-03-16T12:19:49.022Z,1.57
2019-03-16T12:22:30.476Z,1.30
2019-03-16T12:25:03.380Z,1.37
2019-03-16T12:27:42.935Z,1.97
2019-03-16T12:30:13.146Z,1.10
2019-03-16T12:32:47.715Z,1.20
2019-03-16T12:35:16.046Z,1.27
2019-03-16T12:37:46.316Z,1.30
2019-03-16T12:40:18.890Z,1.33
2019-03-16T12:42:49.380Z,1.50
2019-03-16T12:45:31.974Z,1.20
2019-03-16T12:51:38.184Z,1.20
2019-03-16T12:54:14.309Z,1.40
2019-03-16T12:57:03.998Z,1.20
2019-03-16T12:59:46.978Z,1.17
2019-03-16T13:05:13.124Z,1.30
2019-03-16T13:07:48.400Z,1.50
2019-03-16T13:10:31.306Z,1.20
2019-03-16T13:12:55.396Z,1.50
2019-03-16T13:15:39.963Z,2.10
2019-03-16T13:18:14.121Z,1.40
2019-03-16T13:20:47.743Z,1.80
2019-03-16T13:23:55.838Z,1.50
2019-03-16T13:26:38.391Z,1.57
2019-03-16T13:29:29.343Z,1.40
2019-03-16T13:31:58.388Z,1.73
2019-03-16T13:34:34.038Z,1.37
2019-03-16T13:37:04.198Z,1.40
2019-03-16T13:39:34.274Z,1.47
2019-03-16T13:42:49.470Z,1.20
2019-03-16T13:48:58.083Z,1.43
2019-03-16T13:52:17.809Z,1.80
2019-03-16T13:55:14.063Z,1.20
2019-03-16T13:58:02.532Z,1.30
2019-03-16T14:00:34.072Z,1.60
2019-03-16T14:04:42.058Z,1.20
2019-03-16T14:15:38.702Z,1.77
2019-03-16T14:18:40.572Z,1.73
2019-03-16T14:29:13.318Z,1.20
2019-03-16T14:31:53.536Z,1.40
2019-03-16T14:34:36.645Z,1.60
2019-03-16T14:38:04.864Z,2.67
2019-03-16T14:40:52.072Z,1.73
2019-03-16T14:43:28.714Z,2.30
2019-03-16T14:52:51.215Z,1.30
2019-03-16T14:59:34.897Z,1.20
2019-03-16T15:05:52.836Z,1.20
2019-03-16T15:12:53.288Z,1.40
2019-03-16T15:16:01.551Z,1.80
2019-03-16T15:19:02.979Z,1.73
2019-03-16T15:28:55.011Z,1.30
2019-03-16T15:35:14.638Z,1.57
2019-03-16T15:40:50.266Z,1.83
2019-03-16T15:44:22.310Z,1.30
2019-03-16T15:47:20.026Z,1.20
2019-03-16T15:53:28.269Z,1.30
2019-03-16T15:58:53.149Z,1.10
2019-03-16T16:01:28.925Z,2.40
2019-03-16T16:07:19.108Z,1.40
2019-03-16T16:10:42.711Z,1.33
2019-03-16T16:20:35.405Z,1.47
2019-03-16T16:28:10.695Z,1.57
2019-03-16T16:30:45.263Z,1.33
2019-03-16T16:34:04.662Z,1.27
2019-03-16T16:36:37.140Z,1.20
2019-03-16T16:39:09.984Z,2.03
2019-03-16T16:43:22.038Z,1.20
2019-03-16T16:49:28.453Z,1.20
2019-03-16T16:55:35.881Z,1.20
2019-03-16T16:58:41.589Z,1.20
2019-03-16T17:01:04.625Z,1.40
2019-03-16T17:03:55.372Z,1.40
2019-03-16T17:06:26.532Z,1.30
2019-03-16T17:09:17.834Z,1.70
2019-03-16T17:15:23.789Z,1.30
2019-03-16T17:21:34.585Z,1.70
2019-03-16T17:24:17.006Z,1.40
2019-03-16T17:26:55.768Z,1.57
2019-03-16T17:29:26.412Z,1.70
2019-03-16T17:31:56.947Z,1.70
2019-03-16T17:34:27.353Z,8.17
2019-03-16T17:36:57.092Z,2.73
2019-03-16T17:39:28.231Z,1.70
2019-03-16T17:42:02.743Z,1.40
2019-03-16T17:44:59.731Z,1.40
2019-03-16T17:47:30.656Z,1.50
2019-03-16T17:50:09.767Z,1.60
2019-03-16T17:53:21.217Z,1.50
2019-03-16T17:56:24.903Z,1.80
2019-03-16T17:58:55.434Z,1.90
2019-03-16T18:01:29.468Z,2.07
2019-03-16T18:04:02.583Z,2.83
2019-03-16T18:06:49.422Z,3.17
2019-03-16T18:09:25.969Z,2.00
2019-03-16T18:11:57.895Z,2.20
2019-03-16T18:14:28.363Z,2.05
2019-03-16T18:17:01.736Z,5.23
2019-03-16T18:19:38.302Z,4.90
2019-03-16T18:22:08.242Z,3.80
2019-03-16T18:24:40.910Z,3.80
2019-03-16T18:27:11.020Z,4.60
2019-03-16T18:29:41.653Z,4.77
2019-03-16T18:32:11.710Z,4.43
2019-03-16T18:34:41.460Z,4.93
2019-03-16T18:37:11.267Z,4.30
2019-03-16T18:42:41.866Z,3.10
2019-03-16T18:45:13.914Z,3.23
2019-03-16T18:47:44.903Z,3.20
2019-03-16T18:50:14.920Z,3.43
2019-03-16T18:52:51.026Z,4.60
2019-03-16T18:55:26.252Z,4.33
2019-03-16T18:57:57.646Z,7.00
2019-03-16T19:00:49.642Z,5.33
2019-03-16T19:03:17.423Z,5.33
2019-03-16T19:05:49.435Z,5.00
2019-03-16T19:08:21.201Z,4.60
2019-03-16T19:10:54.059Z,4.17
2019-03-16T19:13:35.906Z,4.50
2019-03-16T19:16:09.258Z,3.30
2019-03-16T19:18:42.365Z,3.70
2019-03-16T19:21:22.475Z,3.63
2019-03-16T19:23:56.063Z,3.80
2019-03-16T19:26:26.316Z,4.43
2019-03-16T19:28:56.494Z,4.00
2019-03-16T19:31:28.332Z,3.80
2019-03-16T19:34:02.844Z,3.03
2019-03-16T19:36:34.327Z,2.97
2019-03-16T19:39:16.057Z,2.57
2019-03-16T19:41:46.487Z,2.40
2019-03-16T19:44:16.688Z,2.43
2019-03-16T19:46:56.104Z,2.90
2019-03-16T19:49:27.089Z,3.37
2019-03-16T19:51:57.649Z,2.60
2019-03-16T19:54:31.584Z,2.70
2019-03-16T19:57:01.578Z,3.37
2019-03-16T19:59:32.389Z,3.80
2019-03-16T20:02:02.339Z,5.77
2019-03-16T20:04:36.172Z,7.77
2019-03-16T20:07:18.432Z,10.30
2019-03-16T20:09:39.271Z,3.90
2019-03-16T20:12:09.290Z,3.17
2019-03-16T20:14:40.107Z,6.77
2019-03-16T20:17:10.224Z,4.03
2019-03-16T20:19:39.859Z,11.50
2019-03-16T20:22:12.356Z,4.60
2019-03-16T20:24:47.258Z,6.97
2019-03-16T20:27:19.522Z,3.80
2019-03-16T20:29:49.999Z,9.70
2019-03-16T20:32:20.263Z,10.90
2019-03-16T20:34:50.603Z,10.67
2019-03-16T20:37:20.819Z,7.57
2019-03-16T20:39:55.562Z,5.90
2019-03-16T20:42:25.574Z,4.77
2019-03-16T20:44:56.085Z,4.30
2019-03-16T20:47:30.947Z,5.33
2019-03-16T20:50:03.906Z,7.23
2019-03-16T20:52:33.571Z,3.63
2019-03-16T20:55:11.266Z,2.30
2019-03-16T20:57:46.148Z,5.70
2019-03-16T21:00:16.353Z,3.20
2019-03-16T21:02:47.201Z,1.60
2019-03-16T21:05:25.131Z,1.80
2019-03-16T21:07:56.216Z,1.50
2019-03-16T21:10:33.339Z,1.80
2019-03-16T21:13:06.458Z,1.77
2019-03-16T21:15:38.038Z,1.70
2019-03-16T21:18:08.231Z,1.83
2019-03-16T21:20:39.947Z,1.90
2019-03-16T21:23:09.672Z,1.80
2019-03-16T21:25:42.943Z,1.40
2019-03-16T21:28:15.782Z,1.40
2019-03-16T21:30:45.413Z,2.23
2019-03-16T21:33:28.986Z,2.60
2019-03-16T21:35:54.411Z,1.60
2019-03-16T21:38:30.374Z,1.40
2019-03-16T21:41:09.462Z,1.43
2019-03-16T21:43:44.204Z,1.50
2019-03-16T21:46:24.609Z,1.67
2019-03-16T21:48:54.266Z,2.40
2019-03-16T21:51:24.655Z,1.30
2019-03-16T21:53:55.990Z,1.63
2019-03-16T21:56:27.078Z,1.47
2019-03-16T21:58:59.089Z,1.50
2019-03-16T22:01:29.279Z,1.50
2019-03-16T22:04:02.561Z,1.50
2019-03-16T22:06:33.139Z,1.40
2019-03-16T22:09:02.989Z,1.60
2019-03-16T22:11:33.615Z,1.77
2019-03-16T22:14:03.064Z,3.03
2019-03-16T22:16:32.705Z,3.20
2019-03-16T22:19:06.450Z,3.33
2019-03-16T22:21:38.467Z,2.00
2019-03-16T22:24:18.769Z,1.87
2019-03-16T22:27:07.253Z,1.40
2019-03-16T22:29:40.201Z,1.97
2019-03-16T22:32:13.401Z,1.60
2019-03-16T22:34:46.817Z,1.90
2019-03-16T22:37:20.846Z,1.67
2019-03-16T22:39:51.606Z,2.10
2019-03-16T22:42:23.013Z,1.83
2019-03-16T22:44:58.181Z,1.70
2019-03-16T22:47:29.354Z,1.93
2019-03-16T22:50:05.445Z,2.10
2019-03-16T22:52:35.193Z,2.07
2019-03-16T22:55:11.989Z,2.00
2019-03-16T22:57:43.826Z,2.20
2019-03-16T23:00:14.480Z,2.10
2019-03-16T23:02:44.906Z,2.00
2019-03-16T23:05:18.372Z,2.20
2019-03-16T23:07:48.121Z,2.37
2019-03-16T23:10:17.848Z,2.40
2019-03-16T23:12:47.559Z,2.70
2019-03-16T23:15:17.801Z,3.13
2019-03-16T23:17:47.385Z,2.93
2019-03-16T23:20:20.674Z,2.60
2019-03-16T23:22:57.338Z,2.17
2019-03-16T23:25:42.474Z,2.30
2019-03-16T23:28:12.921Z,1.97
2019-03-16T23:30:43.642Z,2.50
2019-03-16T23:33:14.448Z,2.90
2019-03-16T23:35:49.140Z,2.37
2019-03-16T23:38:27.154Z,2.80
2019-03-16T23:40:57.190Z,2.50
2019-03-16T23:43:30.843Z,2.63
2019-03-16T23:46:02.259Z,2.80
2019-03-16T23:48:36.601Z,2.80
2019-03-16T23:51:20.253Z,2.70
2019-03-16T23:53:51.090Z,2.60
2019-03-16T23:56:26.552Z,3.33
2019-03-16T23:59:04.383Z,3.40
